Time;durP1;ratioP1;P1;durP2;ratioP2;P2;SDS_P1;SDS_P2;PMS_P1;PMS_P2;Temp;Humidity;BMP_temperature;BMP_pressure;BME280_temperature;BME280_humidity;BME280_pressure;Samples;Min_cycle;Max_cycle;Signal;HPM_P1;HPM_P2
2023/08/12 00:02:11;;;;;;;5.70;4.55;;;;;;;18.60;100.00;96213.50;5048820;28;24806;-74
2023/08/12 00:04:37;;;;;;;5.23;4.40;;;;;;;18.69;100.00;96219.75;5042236;28;24970;-73
2023/08/12 00:07:04;;;;;;;9.25;4.20;;;;;;;18.74;100.00;96220.19;5048967;28;24442;-73
2023/08/12 00:09:30;;;;;;;4.80;4.05;;;;;;;18.77;100.00;96219.09;5044589;28;24988;-73
2023/08/12 00:11:58;;;;;;;5.47;4.55;;;;;;;18.70;100.00;96212.69;5049513;28;24530;-73
2023/08/12 00:14:24;;;;;;;4.83;4.17;;;;;;;18.68;100.00;96212.81;5051039;28;24838;-74
2023/08/12 00:16:51;;;;;;;4.68;4.22;;;;;;;18.67;100.00;96212.97;5052978;28;24442;-74
2023/08/12 00:19:17;;;;;;;8.30;4.50;;;;;;;18.63;100.00;96205.34;5052673;28;24439;-74
2023/08/12 00:21:44;;;;;;;5.82;4.15;;;;;;;18.54;100.00;96207.94;5052776;28;24442;-73
2023/08/12 00:24:10;;;;;;;3.95;3.55;;;;;;;18.53;100.00;96201.06;5052539;28;25057;-73
2023/08/12 00:26:37;;;;;;;5.93;3.95;;;;;;;18.57;100.00;96199.81;5052166;28;24530;-73
2023/08/12 00:29:05;;;;;;;4.60;4.07;;;;;;;18.49;100.00;96195.25;5052917;28;24492;-73
2023/08/12 00:31:31;;;;;;;6.77;4.07;;;;;;;18.49;100.00;96195.25;5052549;28;24489;-73
2023/08/12 00:33:58;;;;;;;5.28;3.85;;;;;;;18.56;100.00;96195.53;5052545;28;24799;-73
2023/08/12 00:36:24;;;;;;;6.43;4.22;;;;;;;18.57;100.00;96192.78;5052221;28;25016;-73
2023/08/12 00:38:50;;;;;;;5.75;3.95;;;;;;;18.62;100.00;96181.88;5052718;28;24435;-73
2023/08/12 00:41:17;;;;;;;4.20;3.53;;;;;;;18.65;100.00;96193.88;5052578;28;24761;-73
2023/08/12 00:43:43;;;;;;;4.77;3.53;;;;;;;18.63;100.00;96186.16;5052328;28;24458;-74
2023/08/12 00:46:12;;;;;;;5.30;3.90;;;;;;;18.61;100.00;96194.19;5052011;28;24444;-73
2023/08/12 00:48:40;;;;;;;6.38;3.97;;;;;;;18.57;100.00;96192.78;5051565;28;24442;-73
2023/08/12 00:51:06;;;;;;;5.15;3.90;;;;;;;18.60;100.00;96192.50;5052243;28;24438;-74
2023/08/12 00:53:33;;;;;;;6.78;4.25;;;;;;;18.44;100.00;96194.81;5052559;28;24435;-74
2023/08/12 00:55:59;;;;;;;4.55;3.88;;;;;;;18.34;100.00;96189.53;5052079;28;24795;-73
2023/08/12 00:58:26;;;;;;;5.35;4.00;;;;;;;18.34;100.00;96191.34;5051586;28;24807;-73
2023/08/12 01:00:52;;;;;;;5.13;3.97;;;;;;;18.38;100.00;96183.06;5052017;28;24438;-73
2023/08/12 01:03:20;;;;;;;4.82;4.20;;;;;;;18.38;100.00;96183.06;5052398;28;24447;-73
2023/08/12 01:05:48;;;;;;;8.13;4.65;;;;;;;18.44;100.00;96170.41;5051323;28;24434;-73
2023/08/12 01:08:14;;;;;;;7.88;4.15;;;;;;;18.40;100.00;96164.59;5052128;28;24432;-73
2023/08/12 01:10:45;;;;;;;5.78;4.00;;;;;;;18.22;100.00;96164.41;5051789;28;24482;-73
2023/08/12 01:13:25;;;;;;;4.97;4.25;;;;;;;18.01;100.00;96161.84;5051922;28;24427;-73
2023/08/12 01:15:56;;;;;;;6.10;3.97;;;;;;;17.93;100.00;96161.69;5051403;28;24508;-73
2023/08/12 01:18:25;;;;;;;6.45;4.20;;;;;;;17.94;100.00;96163.31;5051638;28;24501;-73
2023/08/12 01:20:52;;;;;;;5.93;3.83;;;;;;;17.97;100.00;96155.22;5051947;28;24435;-73
2023/08/12 01:23:20;;;;;;;6.35;4.15;;;;;;;18.03;100.00;96159.94;5051718;28;24452;-73
2023/08/12 01:25:47;;;;;;;5.07;3.60;;;;;;;18.12;100.00;96158.28;5050691;28;24489;-73
2023/08/12 01:28:13;;;;;;;5.30;4.20;;;;;;;18.22;100.00;96153.09;5051014;28;24438;-74
2023/08/12 01:30:47;;;;;;;5.47;4.35;;;;;;;18.22;100.00;96153.91;5051434;28;24439;-74
2023/08/12 01:33:22;;;;;;;4.30;3.80;;;;;;;18.12;100.00;96140.78;5051344;28;24965;-73
2023/08/12 01:35:54;;;;;;;5.03;4.10;;;;;;;18.12;100.00;96148.63;5051519;28;24443;-73
2023/08/12 01:38:24;;;;;;;4.25;3.85;;;;;;;18.13;100.00;96147.69;5050836;28;24810;-73
2023/08/12 01:40:52;;;;;;;7.97;4.32;;;;;;;18.07;100.00;96142.97;5051659;28;24431;-74
2023/08/12 01:43:19;;;;;;;5.38;3.88;;;;;;;18.07;100.00;96147.41;5051011;28;24451;-74
2023/08/12 01:45:45;;;;;;;7.55;4.20;;;;;;;18.11;100.00;96152.22;5051260;28;24438;-74
2023/08/12 01:48:12;;;;;;;5.60;4.40;;;;;;;18.12;100.00;96153.88;5050976;28;24501;-74
2023/08/12 01:50:38;;;;;;;4.63;4.13;;;;;;;18.22;100.00;96145.22;5050979;28;24446;-74
2023/08/12 01:53:05;;;;;;;4.55;3.80;;;;;;;18.30;100.00;96148.00;5051079;28;25012;-74
2023/08/12 01:55:33;;;;;;;5.03;3.92;;;;;;;18.34;100.00;96152.84;5050077;28;24438;-74
2023/08/12 01:57:59;;;;;;;7.43;4.07;;;;;;;18.37;100.00;96149.13;5050494;28;24891;-73
2023/08/12 02:00:25;;;;;;;6.78;3.67;;;;;;;18.40;100.00;96154.09;5050811;28;24803;-73
2023/08/12 02:02:52;;;;;;;4.07;3.67;;;;;;;18.43;100.00;96148.59;5051107;28;24454;-74
2023/08/12 02:05:18;;;;;;;4.28;3.85;;;;;;;18.43;100.00;96145.13;5050602;28;24439;-74
2023/08/12 02:07:45;;;;;;;6.50;3.97;;;;;;;18.50;100.00;96138.38;5050639;28;24443;-74
2023/08/12 02:10:11;;;;;;;10.18;4.38;;;;;;;18.72;100.00;96139.94;5050529;28;24438;-74
2023/08/12 02:12:39;;;;;;;4.77;3.97;;;;;;;18.44;100.00;96139.75;5050567;28;24994;-74
2023/08/12 02:15:07;;;;;;;5.90;4.07;;;;;;;18.31;100.00;96136.53;5051020;28;24480;-74
2023/08/12 02:17:33;;;;;;;4.40;4.00;;;;;;;18.21;100.00;96133.91;5050829;28;25103;-73
2023/08/12 02:19:59;;;;;;;5.10;3.85;;;;;;;18.25;100.00;96134.47;5048909;28;24438;-74
2023/08/12 02:22:26;;;;;;;6.93;4.38;;;;;;;18.26;100.00;96136.13;5046134;28;24436;-74
2023/08/12 02:24:53;;;;;;;5.72;3.83;;;;;;;18.13;100.00;96133.72;5050389;28;24447;-74
2023/08/12 02:27:19;;;;;;;5.18;4.00;;;;;;;18.10;100.00;96134.84;5050485;28;24431;-73
2023/08/12 02:29:47;;;;;;;5.30;4.47;;;;;;;18.15;100.00;96134.44;5049888;28;24466;-74
2023/08/12 02:32:13;;;;;;;4.47;4.00;;;;;;;18.23;100.00;96125.91;5049834;28;24459;-74
2023/08/12 02:34:40;;;;;;;4.90;4.13;;;;;;;18.24;100.00;96124.94;5050143;28;24442;-74
2023/08/12 02:37:06;;;;;;;4.53;3.90;;;;;;;18.40;100.00;96119.19;5049975;28;24446;-73
2023/08/12 02:39:33;;;;;;;5.20;4.30;;;;;;;18.52;100.00;96116.28;5050332;28;24439;-74
2023/08/12 02:41:59;;;;;;;6.60;4.45;;;;;;;18.42;100.00;96117.25;5050130;28;24874;-73
2023/08/12 02:44:25;;;;;;;8.30;4.22;;;;;;;18.18;100.00;96117.63;5049899;28;25017;-74
2023/08/12 02:46:53;;;;;;;4.68;4.28;;;;;;;18.11;100.00;96123.41;5049808;28;25017;-73
2023/08/12 02:49:20;;;;;;;6.63;4.22;;;;;;;18.09;100.00;96121.84;5049863;28;24435;-73
2023/08/12 02:51:46;;;;;;;4.32;3.92;;;;;;;18.14;100.00;96115.28;5049923;28;24443;-74
2023/08/12 02:54:13;;;;;;;4.70;3.90;;;;;;;18.20;100.00;96113.88;5049802;28;24439;-74
2023/08/12 02:56:39;;;;;;;5.18;3.50;;;;;;;18.28;100.00;96110.59;5049543;28;24462;-74
2023/08/12 02:59:06;;;;;;;4.28;3.88;;;;;;;18.32;100.00;96109.38;5050068;28;25052;-73
2023/08/12 03:01:32;;;;;;;6.00;4.25;;;;;;;18.37;100.00;96102.75;5049981;28;24439;-73
2023/08/12 03:04:00;;;;;;;5.40;4.23;;;;;;;18.42;100.00;96098.88;5049618;28;24923;-74
2023/08/12 03:06:26;;;;;;;4.50;4.00;;;;;;;18.49;100.00;96092.94;5049557;28;24443;-74
2023/08/12 03:08:53;;;;;;;4.90;4.40;;;;;;;18.32;100.00;96091.84;5050009;28;24524;-74
2023/08/12 03:11:19;;;;;;;5.03;3.80;;;;;;;18.13;100.00;96092.66;5050086;28;24437;-74
2023/08/12 03:13:46;;;;;;;4.95;3.97;;;;;;;18.08;100.00;96088.75;5049720;28;24454;-74
2023/08/12 03:16:14;;;;;;;5.05;4.20;;;;;;;18.07;100.00;96087.94;5049718;28;24442;-74
2023/08/12 03:18:40;;;;;;;4.93;4.07;;;;;;;18.10;100.00;96095.53;5049648;28;24478;-74
2023/08/12 03:21:09;;;;;;;5.32;3.95;;;;;;;18.16;100.00;96095.94;5050017;28;24427;-73
2023/08/12 03:23:36;;;;;;;5.82;4.38;;;;;;;18.14;100.00;96096.91;5049983;28;24451;-74
2023/08/12 03:26:03;;;;;;;4.30;3.83;;;;;;;18.02;100.00;96092.75;5049082;28;24458;-74
2023/08/12 03:28:29;;;;;;;5.43;3.92;;;;;;;18.09;100.00;96099.09;5049629;28;25024;-71
2023/08/12 03:30:56;;;;;;;5.47;3.75;;;;;;;18.19;100.00;96099.13;5048079;28;24446;-71
2023/08/12 03:33:22;;;;;;;4.85;3.47;;;;;;;18.22;100.00;96085.75;5048976;28;24431;-71
2023/08/12 03:35:50;;;;;;;5.00;3.70;;;;;;;18.17;100.00;96095.84;5049421;28;24443;-73
2023/08/12 03:38:17;;;;;;;4.90;3.70;;;;;;;18.11;100.00;96093.75;5034313;28;24993;-73
2023/08/12 03:40:44;;;;;;;4.63;3.70;;;;;;;18.12;100.00;96085.72;5049454;28;25016;-74
2023/08/12 03:43:10;;;;;;;4.10;3.72;;;;;;;18.15;100.00;96087.25;5049360;28;25024;-73
2023/08/12 03:45:40;;;;;;;3.87;3.57;;;;;;;18.13;100.00;96084.78;5049493;28;24438;-74
2023/08/12 03:48:07;;;;;;;4.30;3.73;;;;;;;18.14;100.00;96083.00;5049545;28;24447;-73
2023/08/12 03:50:34;;;;;;;5.03;3.80;;;;;;;18.10;100.00;96079.81;5053751;28;24431;-73
2023/08/12 03:53:01;;;;;;;5.10;3.70;;;;;;;18.03;100.00;96083.94;5053774;28;24435;-73
2023/08/12 03:55:31;;;;;;;4.68;3.97;;;;;;;17.94;100.00;96089.13;5053254;28;24435;-73
2023/08/12 03:57:57;;;;;;;5.20;4.07;;;;;;;17.76;100.00;96096.78;5053033;28;24447;-73
2023/08/12 04:00:24;;;;;;;4.95;3.90;;;;;;;17.70;100.00;96087.66;5052813;28;24990;-73
2023/08/12 04:02:50;;;;;;;5.45;3.90;;;;;;;17.73;100.00;96097.88;5053254;28;24431;-73
2023/08/12 04:05:17;;;;;;;4.00;3.50;;;;;;;17.75;100.00;96095.97;5052877;28;24998;-73
2023/08/12 04:07:43;;;;;;;5.05;4.20;;;;;;;17.82;100.00;96091.84;5053296;28;24432;-73
2023/08/12 04:10:10;;;;;;;5.82;3.50;;;;;;;17.92;100.00;96089.28;5053152;28;24431;-73
2023/08/12 04:12:38;;;;;;;5.83;3.90;;;;;;;18.02;100.00;96081.41;5053010;28;24608;-73
2023/08/12 04:15:06;;;;;;;4.18;3.78;;;;;;;18.09;100.00;96091.22;5052741;28;24438;-73
2023/08/12 04:17:33;;;;;;;4.65;3.53;;;;;;;18.11;100.00;96096.34;5053203;28;24493;-73
2023/08/12 04:19:59;;;;;;;6.38;3.85;;;;;;;18.13;100.00;96091.78;5052892;28;24866;-72
2023/08/12 04:22:26;;;;;;;4.07;3.47;;;;;;;18.21;100.00;96099.00;5052665;28;24993;-73
2023/08/12 04:24:52;;;;;;;6.27;3.70;;;;;;;18.25;100.00;96106.47;5052431;28;24455;-73
2023/08/12 04:27:19;;;;;;;5.30;3.58;;;;;;;18.28;100.00;96108.81;5052817;28;24442;-73
2023/08/12 04:29:47;;;;;;;6.00;3.55;;;;;;;18.28;100.00;96100.09;5052727;28;24443;-73
2023/08/12 04:32:14;;;;;;;4.18;3.72;;;;;;;18.37;100.00;96107.16;5052748;28;24439;-73
2023/08/12 04:34:40;;;;;;;4.70;3.65;;;;;;;18.34;100.00;96096.94;5052432;28;24443;-73
2023/08/12 04:37:07;;;;;;;6.30;3.90;;;;;;;18.56;100.00;96082.75;5052864;28;24798;-73
2023/08/12 04:39:33;;;;;;;5.57;4.00;;;;;;;18.78;100.00;96084.28;5052593;28;24435;-73
2023/08/12 04:42:00;;;;;;;13.13;4.25;;;;;;;18.82;100.00;96091.75;5052355;28;24470;-73
2023/08/12 04:44:26;;;;;;;4.85;3.67;;;;;;;18.61;100.00;96080.53;5052611;28;24462;-73
2023/08/12 04:46:54;;;;;;;6.28;3.95;;;;;;;18.53;100.00;96083.84;5051724;28;24440;-73
2023/08/12 04:49:21;;;;;;;6.82;4.10;;;;;;;18.46;100.00;96084.53;5050850;28;24442;-73
2023/08/12 04:51:47;;;;;;;6.55;4.05;;;;;;;18.33;100.00;96076.94;5051871;28;24997;-73
2023/08/12 04:54:13;;;;;;;4.65;3.80;;;;;;;18.22;100.00;96091.00;5052105;28;24799;-73
2023/08/12 04:56:39;;;;;;;5.97;5.00;;;;;;;18.23;100.00;96084.78;5051968;28;24436;-73
2023/08/12 04:59:06;;;;;;;6.47;4.87;;;;;;;18.32;100.00;96078.75;5052118;28;24432;-73
2023/08/12 05:01:32;;;;;;;6.17;4.20;;;;;;;18.24;100.00;96077.75;5052034;28;24501;-73
2023/08/12 05:04:00;;;;;;;8.15;4.55;;;;;;;18.12;100.00;96077.03;5051951;28;24454;-73
2023/08/12 05:06:27;;;;;;;4.50;3.58;;;;;;;18.10;100.00;96090.28;5051701;28;24438;-73
2023/08/12 05:08:53;;;;;;;5.70;4.82;;;;;;;18.04;100.00;96079.50;5051899;28;24458;-73
2023/08/12 05:11:19;;;;;;;5.90;4.57;;;;;;;17.95;100.00;96073.28;5051840;28;24443;-73
2023/08/12 05:13:46;;;;;;;4.70;4.20;;;;;;;18.02;100.00;96074.41;5052005;28;24438;-73
2023/08/12 05:16:12;;;;;;;10.23;4.50;;;;;;;18.10;100.00;96068.50;5051526;28;24553;-74
2023/08/12 05:18:39;;;;;;;4.50;4.07;;;;;;;18.29;100.00;96072.94;5052048;28;24446;-73
2023/08/12 05:21:06;;;;;;;5.93;4.57;;;;;;;18.12;100.00;96074.41;5051976;28;24435;-73
2023/08/12 05:23:33;;;;;;;6.03;4.22;;;;;;;18.02;100.00;96076.19;5051548;28;25018;-73
2023/08/12 05:25:59;;;;;;;7.40;4.40;;;;;;;17.99;100.00;96077.31;5051212;28;24458;-73
2023/08/12 05:28:26;;;;;;;5.28;3.97;;;;;;;18.02;100.00;96079.66;5050436;28;24814;-73
2023/08/12 05:30:54;;;;;;;6.20;4.40;;;;;;;18.02;100.00;96077.03;5051293;28;24486;-73
2023/08/12 05:33:21;;;;;;;4.30;3.90;;;;;;;18.11;100.00;96084.06;5051075;28;24531;-73
2023/08/12 05:35:48;;;;;;;4.80;4.10;;;;;;;18.21;100.00;96091.16;5051508;28;24424;-73
2023/08/12 05:38:16;;;;;;;4.80;4.25;;;;;;;18.06;100.00;96083.66;5050957;28;25036;-73
2023/08/12 05:40:42;;;;;;;5.00;4.32;;;;;;;18.13;100.00;96090.03;5050004;28;24845;-73
2023/08/12 05:43:09;;;;;;;6.88;3.97;;;;;;;18.38;100.00;96080.78;5051804;28;24435;-73
2023/08/12 05:45:35;;;;;;;5.15;4.40;;;;;;;18.47;100.00;96075.72;5051557;28;24545;-73
2023/08/12 05:48:02;;;;;;;4.72;3.78;;;;;;;18.45;100.00;96067.97;5050969;28;24442;-73
2023/08/12 05:50:28;;;;;;;7.13;3.85;;;;;;;18.46;100.00;96079.28;5051685;28;24435;-73
2023/08/12 05:52:55;;;;;;;5.20;4.13;;;;;;;18.52;100.00;96066.47;5051437;28;24415;-73
2023/08/12 05:55:23;;;;;;;4.45;3.72;;;;;;;18.61;100.00;96076.13;5051582;28;24415;-73
2023/08/12 05:57:49;;;;;;;6.78;4.53;;;;;;;18.69;100.00;96072.81;5051604;28;24431;-73
2023/08/12 06:00:16;;;;;;;5.22;4.40;;;;;;;18.82;100.00;96067.31;5058643;28;24454;-73
2023/08/12 06:02:42;;;;;;;8.43;4.50;;;;;;;18.96;100.00;96066.88;5051317;28;24977;-73
2023/08/12 06:05:09;;;;;;;4.85;4.15;;;;;;;19.10;100.00;96070.88;5050535;28;24547;-73
2023/08/12 06:07:36;;;;;;;7.05;4.10;;;;;;;19.21;100.00;96072.50;5050386;28;24446;-73
2023/08/12 06:10:03;;;;;;;5.10;4.18;;;;;;;19.21;100.00;96077.75;5050983;28;24431;-73
2023/08/12 06:12:31;;;;;;;5.13;3.97;;;;;;;19.27;100.00;96071.91;5050634;28;25031;-73
2023/08/12 06:14:57;;;;;;;6.40;4.27;;;;;;;19.28;100.00;96078.81;5050914;28;24997;-73
2023/08/12 06:17:24;;;;;;;5.65;4.55;;;;;;;19.26;100.00;96075.53;5050831;28;24493;-73
2023/08/12 06:19:50;;;;;;;6.00;3.90;;;;;;;19.39;100.00;96081.28;5051063;28;24431;-73
2023/08/12 06:22:17;;;;;;;5.30;4.35;;;;;;;19.43;100.00;96084.44;5050628;28;24810;-74
2023/08/12 06:24:43;;;;;;;4.72;4.03;;;;;;;19.58;100.00;96089.09;5050533;28;24807;-74
2023/08/12 06:27:10;;;;;;;4.50;3.72;;;;;;;19.74;100.00;96079.81;5050772;28;24438;-74
2023/08/12 06:29:38;;;;;;;7.43;3.83;;;;;;;19.85;100.00;96076.16;5050944;28;24439;-74
2023/08/12 06:32:04;;;;;;;5.30;4.00;;;;;;;19.82;100.00;96082.53;5051059;28;24430;-74
2023/08/12 06:34:31;;;;;;;5.20;4.05;;;;;;;19.86;100.00;96077.81;5050260;28;24431;-72
2023/08/12 06:36:57;;;;;;;5.72;4.28;;;;;;;19.86;100.00;96076.00;5049968;28;24439;-72
2023/08/12 06:39:24;;;;;;;7.43;4.33;;;;;;;19.88;100.00;96074.06;5050352;28;24453;-73
2023/08/12 06:41:52;;;;;;;4.47;3.80;;;;;;;19.86;100.00;96075.19;5049994;28;24431;-73
2023/08/12 06:44:18;;;;;;;5.35;4.50;;;;;;;19.85;100.00;96074.34;5050021;28;24528;-73
2023/08/12 06:46:46;;;;;;;4.10;3.53;;;;;;;20.11;100.00;96073.66;5050068;28;25029;-74
2023/08/12 06:49:12;;;;;;;5.18;4.28;;;;;;;20.27;100.00;96071.19;5049828;28;24439;-73
2023/08/12 06:51:38;;;;;;;8.33;4.37;;;;;;;20.40;100.00;96076.94;5049998;28;24970;-73
2023/08/12 06:54:05;;;;;;;6.20;4.20;;;;;;;20.54;100.00;96076.44;5050204;28;24435;-73
2023/08/12 06:56:31;;;;;;;5.45;4.07;;;;;;;20.75;100.00;96068.22;5050189;28;24787;-74
2023/08/12 06:58:58;;;;;;;4.90;4.40;;;;;;;21.06;100.00;96077.50;5049575;28;24970;-74
2023/08/12 07:01:24;;;;;;;5.70;3.97;;;;;;;21.28;100.00;96069.09;5050492;28;24428;-73
2023/08/12 07:03:52;;;;;;;5.47;4.28;;;;;;;21.36;100.00;96076.25;5050415;28;24427;-73
2023/08/12 07:06:18;;;;;;;5.35;3.97;;;;;;;21.50;100.00;96075.69;5049427;28;24445;-74
2023/08/12 07:08:45;;;;;;;6.00;4.13;;;;;;;21.58;100.00;96080.16;5049701;28;24439;-73
2023/08/12 07:11:11;;;;;;;4.95;4.15;;;;;;;21.83;100.00;96076.66;5050254;28;24517;-73
2023/08/12 07:13:38;;;;;;;4.00;3.60;;;;;;;22.05;100.00;96079.72;5049837;28;24442;-76
2023/08/12 07:16:04;;;;;;;5.88;4.43;;;;;;;22.12;100.00;96078.94;5049741;28;24420;-77
2023/08/12 07:18:31;;;;;;;5.43;3.92;;;;;;;22.29;100.00;96079.84;5049297;28;24419;-76
2023/08/12 07:20:59;;;;;;;6.78;4.47;;;;;;;22.47;100.00;96071.78;5049932;28;24443;-77
2023/08/12 07:23:26;;;;;;;6.22;3.80;;;;;;;22.67;100.00;96078.41;5050216;28;25000;-77
2023/08/12 07:25:52;;;;;;;7.00;4.28;;;;;;;22.90;100.00;96075.94;5053299;28;25001;-77
2023/08/12 07:28:19;;;;;;;5.18;3.33;;;;;;;22.98;100.00;96069.88;5053103;28;24427;-77
2023/08/12 07:30:45;;;;;;;5.68;4.20;;;;;;;23.13;100.00;96072.66;5052437;28;24434;-77
2023/08/12 07:33:12;;;;;;;6.10;4.20;;;;;;;23.30;100.00;96073.47;5053304;28;24435;-77
2023/08/12 07:35:38;;;;;;;9.00;4.80;;;;;;;23.49;100.00;96067.00;5052961;28;24438;-76
2023/08/12 07:38:07;;;;;;;7.57;4.50;;;;;;;23.79;100.00;96063.63;5053745;28;24434;-77
2023/08/12 07:40:33;;;;;;;5.78;4.97;;;;;;;24.21;100.00;96064.25;5053660;28;24447;-77
2023/08/12 07:43:00;;;;;;;8.23;5.00;;;;;;;24.44;100.00;96078.41;5053332;28;24435;-77
2023/08/12 07:45:26;;;;;;;7.68;4.93;;;;;;;24.44;100.00;96075.75;5053557;28;24455;-76
2023/08/12 07:47:53;;;;;;;7.23;5.17;;;;;;;24.28;100.00;96070.50;5053445;28;24436;-77
2023/08/12 07:50:20;;;;;;;6.32;4.63;;;;;;;24.12;100.00;96072.25;5053236;28;24442;-77
2023/08/12 07:52:46;;;;;;;6.25;4.45;;;;;;;24.03;100.00;96070.63;5053791;28;24458;-77
2023/08/12 07:55:15;;;;;;;7.00;4.47;;;;;;;24.23;100.00;96073.66;5053989;28;24449;-78
2023/08/12 07:57:42;;;;;;;6.27;4.73;;;;;;;24.18;100.00;96070.72;5052410;28;25002;-77
2023/08/12 08:00:10;;;;;;;5.70;4.15;;;;;;;24.15;100.00;96066.59;5052323;28;24426;-77
2023/08/12 08:02:36;;;;;;;4.00;3.60;;;;;;;24.43;100.00;96067.97;5037841;28;24428;-77
2023/08/12 08:05:03;;;;;;;4.75;3.70;;;;;;;24.76;100.00;96064.09;5053103;28;24504;-77
2023/08/12 08:07:30;;;;;;;4.10;3.70;;;;;;;25.05;100.00;96062.53;5048640;28;24449;-77
2023/08/12 08:09:56;;;;;;;4.85;2.95;;;;;;;25.23;100.00;96065.72;5054068;28;24428;-77
2023/08/12 08:12:24;;;;;;;3.85;3.50;;;;;;;25.24;100.00;96058.59;5052965;28;24416;-77
2023/08/12 08:14:51;;;;;;;5.00;3.63;;;;;;;25.34;100.00;96057.31;5053161;28;24415;-77
2023/08/12 08:17:17;;;;;;;8.98;3.72;;;;;;;25.43;100.00;96051.94;5053414;28;24416;-77
2023/08/12 08:19:43;;;;;;;4.43;3.35;;;;;;;25.64;100.00;96054.69;5054484;28;24791;-77
2023/08/12 08:22:10;;;;;;;4.07;3.67;;;;;;;26.13;100.00;96059.41;5055528;28;24419;-76
2023/08/12 08:24:37;;;;;;;6.18;3.60;;;;;;;26.14;100.00;96065.56;5053164;28;24978;-80
2023/08/12 08:27:04;;;;;;;4.95;3.83;;;;;;;26.65;100.00;96065.53;5052880;28;24795;-77
2023/08/12 08:29:32;;;;;;;4.63;3.60;;;;;;;26.81;100.00;96062.66;5053831;28;24783;-77
2023/08/12 08:31:58;;;;;;;5.50;4.03;;;;;;;26.90;100.00;96068.63;5054928;28;24439;-78
2023/08/12 08:34:25;;;;;;;5.10;3.17;;;;;;;27.13;100.00;96068.44;5053859;28;24435;-78
2023/08/12 08:36:51;;;;;;;4.78;3.40;;;;;;;27.26;100.00;96060.59;5049719;28;24834;-78
2023/08/12 08:39:18;;;;;;;6.45;3.33;;;;;;;27.32;100.00;96051.00;5054101;28;24443;-78
2023/08/12 08:41:48;;;;;;;4.00;3.05;;;;;;;27.65;100.00;96060.03;5054193;28;24431;-77
2023/08/12 08:44:16;;;;;;;4.13;2.90;;;;;;;27.96;100.00;96056.13;5042145;28;24961;-78
2023/08/12 08:46:44;;;;;;;4.20;3.35;;;;;;;27.93;100.00;96061.84;5034518;28;24448;-77
2023/08/12 08:49:12;;;;;;;5.45;3.42;;;;;;;27.89;100.00;96064.09;5036305;28;24431;-76
2023/08/12 08:51:39;;;;;;;4.20;3.47;;;;;;;28.39;100.00;96064.72;5055807;28;24462;-77
2023/08/12 08:54:06;;;;;;;3.22;2.92;;;;;;;28.52;100.00;96066.59;5056685;28;24446;-79
2023/08/12 08:56:33;;;;;;;5.00;2.90;;;;;;;28.27;100.00;96055.63;5055823;28;24451;-79
2023/08/12 08:59:00;;;;;;;5.65;3.33;;;;;;;27.80;100.00;96059.94;5055509;28;24442;-79
2023/08/12 09:01:29;;;;;;;5.47;2.80;;;;;;;27.67;100.00;96065.97;5054963;28;24442;-79
2023/08/12 09:03:58;;;;;;;3.38;2.42;;;;;;;27.41;100.00;96071.13;5055406;28;24431;-79
2023/08/12 09:06:27;;;;;;;4.18;2.60;;;;;;;27.17;100.00;96070.53;5054187;28;24991;-79
2023/08/12 09:08:54;;;;;;;4.72;2.60;;;;;;;27.11;100.00;96060.69;5054190;28;24530;-79
2023/08/12 09:11:21;;;;;;;3.03;2.70;;;;;;;27.22;100.00;96064.66;5054151;28;24993;-78
2023/08/12 09:13:48;;;;;;;3.60;2.47;;;;;;;27.41;100.00;96066.63;5054961;28;24795;-79
2023/08/12 09:16:16;;;;;;;3.20;2.13;;;;;;;27.70;100.00;96059.41;5055863;28;24443;-79
2023/08/12 09:18:44;;;;;;;7.88;2.28;;;;;;;27.60;100.00;96059.78;5055191;28;24950;-79
2023/08/12 09:21:12;;;;;;;3.45;2.47;;;;;;;27.46;99.00;96055.41;5054750;28;24438;-78
2023/08/12 09:23:39;;;;;;;4.13;2.20;;;;;;;27.30;100.00;96042.41;5055769;28;24439;-78
2023/08/12 09:26:14;;;;;;;2.50;2.30;;;;;;;27.30;100.00;96029.13;5055388;28;24826;-79
2023/08/12 09:28:41;;;;;;;3.30;2.47;;;;;;;27.18;100.00;96039.44;5057050;28;25059;-78
2023/08/12 09:31:08;;;;;;;2.67;2.25;;;;;;;27.11;100.00;96052.72;5051055;28;24439;-78
2023/08/12 09:33:40;;;;;;;5.38;2.63;;;;;;;27.04;100.00;96041.16;5056681;28;24435;-78
2023/08/12 09:36:06;;;;;;;3.88;2.67;;;;;;;26.98;100.00;96044.59;5056818;28;24415;-78
2023/08/12 09:38:34;;;;;;;3.40;2.42;;;;;;;26.94;100.00;96054.78;5058153;28;24489;-78
2023/08/12 09:41:01;;;;;;;5.38;2.60;;;;;;;26.98;100.00;96058.69;5056593;28;25008;-78
2023/08/12 09:43:29;;;;;;;2.22;2.00;;;;;;;26.92;100.00;96061.28;5055420;28;24431;-78
2023/08/12 09:45:57;;;;;;;3.10;2.50;;;;;;;26.87;100.00;96064.53;5053827;28;24452;-79
2023/08/12 09:48:24;;;;;;;4.13;2.47;;;;;;;26.82;100.00;96071.44;5056944;28;24475;-79
2023/08/12 09:50:50;;;;;;;4.53;2.58;;;;;;;26.79;100.00;96065.47;5058868;28;25060;-79
2023/08/12 09:53:17;;;;;;;3.78;2.30;;;;;;;26.79;100.00;96052.19;5058885;28;24541;-78
2023/08/12 09:55:49;;;;;;;3.88;2.45;;;;;;;26.79;100.00;96052.19;5061707;28;24795;-76
2023/08/12 09:58:18;;;;;;;3.33;2.00;;;;;;;26.82;100.00;96048.34;5039222;28;24435;-79
2023/08/12 10:00:46;;;;;;;3.60;2.60;;;;;;;26.81;100.00;96045.84;5061746;28;24431;-78
2023/08/12 10:03:14;;;;;;;6.73;2.50;;;;;;;26.93;100.00;96047.81;5064854;28;24505;-79
2023/08/12 10:05:42;;;;;;;3.10;2.38;;;;;;;27.49;100.00;96034.56;5065157;28;25005;-79
2023/08/12 10:08:09;;;;;;;3.08;2.40;;;;;;;27.85;100.00;96028.25;5065090;28;24454;-79
2023/08/12 10:10:37;;;;;;;3.03;2.42;;;;;;;28.06;99.07;96018.47;5063304;28;24443;-79
2023/08/12 10:13:07;;;;;;;3.03;2.40;;;;;;;28.29;97.22;96026.13;5062648;28;24819;-79
2023/08/12 10:15:34;;;;;;;7.25;2.55;;;;;;;28.69;97.09;96027.06;5062364;28;24846;-79
2023/08/12 10:18:00;;;;;;;5.15;2.40;;;;;;;28.81;89.68;96020.13;5071132;28;24461;-79
2023/08/12 10:20:28;;;;;;;2.72;2.15;;;;;;;29.24;89.18;96021.56;5069516;28;24442;-79
2023/08/12 10:22:55;;;;;;;4.28;2.33;;;;;;;29.31;70.09;96023.19;5057983;28;24435;-79
2023/08/12 10:25:22;;;;;;;5.53;2.47;;;;;;;29.50;66.29;96020.72;5062331;28;24446;-79
2023/08/12 10:27:49;;;;;;;3.88;2.30;;;;;;;29.61;64.59;96018.25;5062296;28;24443;-79
2023/08/12 10:30:17;;;;;;;3.50;2.10;;;;;;;29.92;63.61;96023.88;5062190;28;24435;-79
2023/08/12 10:32:43;;;;;;;4.53;2.30;;;;;;;30.00;59.42;96029.84;5062698;28;24482;-79
2023/08/12 10:35:10;;;;;;;4.03;2.15;;;;;;;30.05;57.24;96035.34;5062549;28;25000;-79
2023/08/12 10:37:37;;;;;;;6.80;2.30;;;;;;;30.02;57.33;96026.94;5062550;28;24470;-79
2023/08/12 10:40:07;;;;;;;4.43;2.45;;;;;;;29.64;57.79;96036.50;5062844;28;24448;-79
2023/08/12 10:42:44;;;;;;;5.38;2.28;;;;;;;29.62;59.27;96027.88;5063168;28;25120;-79
2023/08/12 10:45:13;;;;;;;3.47;2.37;;;;;;;29.64;61.80;96031.16;5063045;28;24452;-79
2023/08/12 10:47:43;;;;;;;4.00;2.30;;;;;;;29.47;59.34;96023.78;5064312;28;24439;-79
2023/08/12 10:50:19;;;;;;;3.50;2.28;;;;;;;29.33;60.17;96031.81;5063805;28;24470;-79
2023/08/12 10:52:46;;;;;;;2.53;1.90;;;;;;;29.01;60.13;96025.47;5064898;28;24448;-79
2023/08/12 10:55:23;;;;;;;7.50;2.45;;;;;;;28.87;59.59;96031.78;5064344;28;24443;-78
2023/08/12 10:57:50;;;;;;;2.78;2.30;;;;;;;28.77;59.27;96034.03;5064625;28;24500;-79
2023/08/12 11:00:21;;;;;;;3.90;2.15;;;;;;;28.60;60.63;96039.75;5064704;28;24467;-78
2023/08/12 11:02:51;;;;;;;3.40;2.10;;;;;;;28.50;60.17;96042.00;5064410;28;24439;-79
2023/08/12 11:05:19;;;;;;;3.85;2.35;;;;;;;28.32;61.17;96041.72;5064122;28;24458;-79
2023/08/12 11:07:47;;;;;;;5.55;2.15;;;;;;;28.28;61.60;96040.47;5066951;28;24439;-79
2023/08/12 11:10:15;;;;;;;5.10;2.00;;;;;;;28.36;62.31;96041.09;5067392;28;24458;-78
2023/08/12 11:12:46;;;;;;;2.78;2.10;;;;;;;28.50;61.90;96044.66;5067375;28;24431;-79
2023/08/12 11:15:13;;;;;;;4.05;2.25;;;;;;;28.51;62.66;96038.31;5068168;28;24439;-79
2023/08/12 11:17:42;;;;;;;2.97;2.00;;;;;;;28.55;62.79;96030.72;5067443;28;24462;-78
2023/08/12 11:20:12;;;;;;;3.97;2.30;;;;;;;28.61;62.02;96028.06;5067360;28;24514;-79
2023/08/12 11:22:40;;;;;;;2.80;1.90;;;;;;;28.89;60.40;96008.44;5067947;28;24535;-79
2023/08/12 11:25:08;;;;;;;5.22;2.20;;;;;;;29.04;60.17;96019.75;5068602;28;24434;-79
2023/08/12 11:27:40;;;;;;;3.95;2.13;;;;;;;29.24;59.48;96003.72;5069537;28;24481;-79